createdAt,value
2022-12-27T00:01:38.077Z,1.25
2022-12-27T00:04:05.845Z,1.20
2022-12-27T00:06:33.122Z,1.30
2022-12-27T00:09:02.226Z,1.38
2022-12-27T00:11:32.306Z,1.52
2022-12-27T00:14:00.787Z,1.55
2022-12-27T00:16:28.275Z,1.58
2022-12-27T00:18:55.535Z,1.60
2022-12-27T00:21:23.569Z,1.17
2022-12-27T00:23:56.679Z,1.33
2022-12-27T00:26:29.424Z,1.40
2022-12-27T00:28:57.217Z,1.30
2022-12-27T00:31:26.273Z,1.30
2022-12-27T00:33:55.629Z,1.25
2022-12-27T00:36:26.433Z,1.15
2022-12-27T00:38:55.908Z,0.80
2022-12-27T00:41:23.203Z,0.93
2022-12-27T00:43:50.732Z,1.00
2022-12-27T00:46:18.477Z,1.00
2022-12-27T00:48:46.236Z,1.13
2022-12-27T00:51:19.264Z,1.13
2022-12-27T00:53:47.115Z,1.13
2022-12-27T00:56:20.638Z,1.00
2022-12-27T00:58:48.237Z,1.13
2022-12-27T01:01:17.756Z,1.00
2022-12-27T01:03:46.223Z,1.13
2022-12-27T01:06:20.669Z,1.00
2022-12-27T01:08:48.915Z,0.80
2022-12-27T01:11:18.215Z,1.00
2022-12-27T01:13:45.995Z,0.90
2022-12-27T01:16:16.016Z,1.15
2022-12-27T01:18:43.847Z,1.00
2022-12-27T01:21:13.603Z,1.08
2022-12-27T01:23:41.102Z,0.95
2022-12-27T01:26:13.342Z,1.08
2022-12-27T01:28:40.793Z,1.05
2022-12-27T01:31:10.028Z,0.90
2022-12-27T01:33:37.850Z,1.00
2022-12-27T01:36:14.125Z,1.17
2022-12-27T01:38:43.339Z,1.10
2022-12-27T01:41:34.860Z,1.25
2022-12-27T01:44:02.025Z,1.20
2022-12-27T01:46:30.664Z,1.25
2022-12-27T01:48:58.215Z,1.27
2022-12-27T01:51:25.772Z,1.05
2022-12-27T01:53:53.950Z,1.05
2022-12-27T01:56:27.774Z,1.13
2022-12-27T01:59:00.658Z,1.13
2022-12-27T02:01:33.384Z,1.08
2022-12-27T02:04:08.375Z,1.30
2022-12-27T02:06:37.285Z,1.20
2022-12-27T02:09:35.535Z,0.93
2022-12-27T02:12:06.297Z,1.60
2022-12-27T02:14:45.181Z,1.83
2022-12-27T02:17:20.496Z,1.30
2022-12-27T02:20:14.028Z,1.55
2022-12-27T02:23:18.560Z,1.20
2022-12-27T02:25:51.428Z,1.20
2022-12-27T02:28:49.529Z,1.20
2022-12-27T02:31:41.401Z,1.20
2022-12-27T02:34:18.867Z,1.27
2022-12-27T02:36:47.161Z,1.40
2022-12-27T02:39:16.238Z,1.20
2022-12-27T02:42:03.892Z,1.27
2022-12-27T02:44:49.595Z,1.23
2022-12-27T02:47:41.096Z,1.45
2022-12-27T02:50:29.962Z,1.10
2022-12-27T02:53:23.018Z,1.40
2022-12-27T02:56:20.658Z,1.08
2022-12-27T02:58:53.447Z,1.30
2022-12-27T03:01:42.478Z,1.20
2022-12-27T03:04:38.020Z,1.17
2022-12-27T03:09:56.294Z,1.00
2022-12-27T03:13:04.493Z,1.10
2022-12-27T03:15:53.256Z,1.35
2022-12-27T03:18:38.426Z,1.30
2022-12-27T03:21:26.796Z,1.00
2022-12-27T03:24:15.760Z,1.00
2022-12-27T03:26:50.298Z,1.08
2022-12-27T03:32:27.802Z,1.00
2022-12-27T03:35:05.672Z,1.10
2022-12-27T03:37:55.842Z,1.25
2022-12-27T03:41:04.289Z,1.20
2022-12-27T03:43:32.312Z,1.20
2022-12-27T03:46:36.058Z,1.10
2022-12-27T03:49:08.991Z,1.20
2022-12-27T03:51:57.174Z,1.40
2022-12-27T03:54:31.116Z,1.40
2022-12-27T03:57:01.859Z,1.47
2022-12-27T03:59:29.484Z,1.30
2022-12-27T04:01:57.562Z,1.30
2022-12-27T04:04:25.269Z,1.50
2022-12-27T04:06:52.472Z,1.73
2022-12-27T04:09:38.328Z,1.45
2022-12-27T04:12:24.510Z,1.70
2022-12-27T04:15:10.395Z,2.10
2022-12-27T04:17:56.418Z,1.48
2022-12-27T04:20:42.029Z,1.63
2022-12-27T04:23:27.902Z,1.80
2022-12-27T04:26:13.697Z,1.33
2022-12-27T04:28:59.878Z,1.50
2022-12-27T04:31:45.735Z,1.75
2022-12-27T04:34:31.119Z,1.65
2022-12-27T04:36:58.637Z,1.27
2022-12-27T04:39:26.048Z,1.70
2022-12-27T04:42:11.922Z,1.73
2022-12-27T04:44:57.296Z,1.80
2022-12-27T04:47:43.408Z,1.50
2022-12-27T04:50:51.060Z,1.63
2022-12-27T04:53:39.282Z,1.70
2022-12-27T04:56:07.420Z,1.48
2022-12-27T04:58:35.368Z,1.30
2022-12-27T05:01:23.102Z,1.33
2022-12-27T05:03:53.651Z,1.33
2022-12-27T05:06:21.397Z,1.50
2022-12-27T05:09:07.393Z,1.30
2022-12-27T05:11:52.872Z,1.17
2022-12-27T05:14:20.122Z,1.30
2022-12-27T05:16:47.265Z,1.50
2022-12-27T05:19:15.454Z,1.65
2022-12-27T05:22:03.630Z,1.80
2022-12-27T05:24:49.928Z,1.40
2022-12-27T05:27:18.200Z,1.27
2022-12-27T05:29:46.776Z,1.48
2022-12-27T05:32:14.028Z,1.40
2022-12-27T05:34:41.657Z,1.40
2022-12-27T05:37:09.276Z,1.33
2022-12-27T05:39:36.496Z,1.35
2022-12-27T05:42:04.023Z,1.20
2022-12-27T05:44:31.331Z,1.77
2022-12-27T05:46:58.541Z,1.48
2022-12-27T05:49:25.692Z,1.85
2022-12-27T05:51:53.296Z,1.65
2022-12-27T05:54:20.454Z,1.45
2022-12-27T05:56:47.800Z,1.52
2022-12-27T05:59:14.991Z,1.23
2022-12-27T06:01:42.410Z,1.85
2022-12-27T06:04:10.823Z,1.92
2022-12-27T06:06:38.508Z,1.40
2022-12-27T06:09:05.974Z,0.90
2022-12-27T06:11:33.414Z,1.02
2022-12-27T06:14:00.923Z,1.25
2022-12-27T06:16:28.217Z,1.08
2022-12-27T06:18:55.664Z,1.10
2022-12-27T06:21:23.419Z,1.00
2022-12-27T06:23:50.815Z,1.70
2022-12-27T06:26:21.092Z,1.00
2022-12-27T06:28:49.804Z,1.50
2022-12-27T06:31:19.451Z,1.20
2022-12-27T06:33:50.662Z,1.10
2022-12-27T06:36:20.743Z,1.10
2022-12-27T06:38:48.783Z,1.08
2022-12-27T06:41:17.839Z,1.60
2022-12-27T06:43:46.139Z,1.23
2022-12-27T06:46:17.920Z,1.75
2022-12-27T06:48:46.735Z,2.22
2022-12-27T06:51:16.025Z,1.98
2022-12-27T06:53:43.348Z,2.25
2022-12-27T06:56:22.571Z,2.58
2022-12-27T06:58:51.123Z,2.03
2022-12-27T07:01:24.217Z,1.70
2022-12-27T07:03:57.682Z,1.40
2022-12-27T07:06:27.624Z,1.48
2022-12-27T07:08:56.716Z,1.00
2022-12-27T07:11:24.767Z,1.10
2022-12-27T07:13:53.982Z,1.17
2022-12-27T07:16:24.298Z,1.63
2022-12-27T07:18:52.115Z,1.40
2022-12-27T07:21:24.518Z,1.98
2022-12-27T07:23:52.413Z,1.63
2022-12-27T07:26:22.629Z,1.90
2022-12-27T07:28:53.008Z,2.10
2022-12-27T07:31:26.676Z,1.63
2022-12-27T07:33:54.010Z,1.95
2022-12-27T07:36:26.900Z,2.25
2022-12-27T07:38:54.180Z,3.00
2022-12-27T07:41:21.677Z,12.00
2022-12-27T07:43:48.980Z,17.17
2022-12-27T07:46:24.982Z,14.25
2022-12-27T07:48:57.700Z,10.43
2022-12-27T07:51:26.332Z,6.88
2022-12-27T07:53:54.253Z,4.78
2022-12-27T07:56:26.548Z,3.58
2022-12-27T07:58:57.024Z,4.60
2022-12-27T08:01:27.184Z,5.45
2022-12-27T08:03:55.154Z,5.45
2022-12-27T08:06:31.816Z,10.07
2022-12-27T08:09:00.991Z,11.27
2022-12-27T08:11:28.772Z,13.60
2022-12-27T08:13:56.145Z,12.32
2022-12-27T08:18:34.149Z,3.78
2022-12-27T08:21:02.115Z,2.17
2022-12-27T08:23:29.488Z,1.55
2022-12-27T08:25:56.648Z,1.08
2022-12-27T08:28:23.963Z,1.30
2022-12-27T08:30:51.333Z,1.40
2022-12-27T08:33:19.435Z,1.30
2022-12-27T08:35:54.796Z,1.42
2022-12-27T08:38:23.234Z,1.60
2022-12-27T08:40:51.132Z,1.85
2022-12-27T08:43:18.909Z,2.30
2022-12-27T08:45:46.439Z,1.83
2022-12-27T08:48:13.811Z,1.65
2022-12-27T08:50:41.114Z,1.70
2022-12-27T08:53:08.352Z,1.80
2022-12-27T08:55:36.410Z,2.00
2022-12-27T08:58:10.562Z,2.70
2022-12-27T09:00:42.894Z,1.58
2022-12-27T09:03:10.944Z,1.48
2022-12-27T09:05:41.898Z,1.80
2022-12-27T09:08:10.601Z,1.85
2022-12-27T09:10:38.462Z,2.42
2022-12-27T09:13:05.669Z,2.35
2022-12-27T09:15:32.957Z,2.22
2022-12-27T09:18:00.214Z,2.05
2022-12-27T09:20:27.569Z,1.80
2022-12-27T09:22:55.041Z,1.92
2022-12-27T09:25:22.343Z,1.92
2022-12-27T09:27:49.677Z,1.70
2022-12-27T09:30:18.200Z,1.85
2022-12-27T09:32:45.564Z,1.50
2022-12-27T09:35:12.949Z,1.63
2022-12-27T09:37:40.335Z,1.83
2022-12-27T09:40:13.755Z,1.70
2022-12-27T09:43:09.442Z,1.63
2022-12-27T09:45:48.619Z,1.80
2022-12-27T09:48:35.588Z,2.33
2022-12-27T09:51:08.798Z,1.90
2022-12-27T09:53:56.965Z,1.85
2022-12-27T09:56:40.937Z,1.90
2022-12-27T09:59:43.505Z,1.75
2022-12-27T10:02:24.475Z,1.65
2022-12-27T10:05:19.165Z,1.88
2022-12-27T10:07:43.992Z,1.80
2022-12-27T10:10:35.683Z,1.70
2022-12-27T10:13:14.897Z,1.90
2022-12-27T10:15:55.307Z,1.60
2022-12-27T10:18:33.808Z,1.65
2022-12-27T10:21:12.539Z,1.50
2022-12-27T10:23:44.970Z,1.88
2022-12-27T10:26:16.280Z,1.77
2022-12-27T10:28:46.445Z,1.55
2022-12-27T10:31:19.223Z,1.50
2022-12-27T10:33:48.976Z,1.98
2022-12-27T10:36:23.888Z,2.00
2022-12-27T10:38:51.249Z,1.75
2022-12-27T10:41:41.761Z,1.40
2022-12-27T10:44:12.541Z,1.60
2022-12-27T10:46:42.810Z,2.10
2022-12-27T10:49:30.820Z,1.67
2022-12-27T10:52:07.739Z,1.80
2022-12-27T10:54:35.256Z,1.60
2022-12-27T10:57:27.100Z,1.75
2022-12-27T11:00:16.680Z,1.38
2022-12-27T11:02:58.046Z,2.20
2022-12-27T11:05:30.877Z,1.90
2022-12-27T11:07:58.681Z,1.40
2022-12-27T11:10:28.302Z,1.08
2022-12-27T11:13:06.566Z,1.08
2022-12-27T11:15:40.578Z,2.13
2022-12-27T11:18:19.784Z,1.48
2022-12-27T11:20:55.080Z,1.25
2022-12-27T11:23:24.544Z,1.48
2022-12-27T11:26:05.246Z,1.55
2022-12-27T11:28:39.765Z,1.30
2022-12-27T11:31:19.260Z,1.33
2022-12-27T11:33:50.199Z,1.50
2022-12-27T11:36:27.889Z,1.30
2022-12-27T11:38:55.871Z,1.63
2022-12-27T11:41:31.899Z,2.30
2022-12-27T11:44:22.373Z,1.40
2022-12-27T11:47:37.308Z,1.30
2022-12-27T11:50:22.412Z,1.30
2022-12-27T11:55:37.416Z,1.25
2022-12-27T11:58:32.270Z,1.38
2022-12-27T12:01:28.849Z,1.48
2022-12-27T12:04:26.605Z,1.40
2022-12-27T12:07:12.981Z,1.40
2022-12-27T12:10:04.780Z,1.10
2022-12-27T12:12:47.469Z,1.25
2022-12-27T12:15:26.190Z,1.25
2022-12-27T12:18:21.029Z,1.40
2022-12-27T12:21:26.367Z,1.10
2022-12-27T12:24:21.023Z,0.93
2022-12-27T12:27:06.871Z,1.00
2022-12-27T12:30:00.400Z,1.00
2022-12-27T12:32:41.707Z,1.40
2022-12-27T12:35:34.673Z,1.10
2022-12-27T12:38:21.974Z,1.13
2022-12-27T12:40:59.565Z,1.02
2022-12-27T12:43:41.975Z,2.13
2022-12-27T12:46:37.706Z,1.40
2022-12-27T12:49:04.793Z,0.98
2022-12-27T12:51:41.210Z,2.30
2022-12-27T12:54:28.247Z,1.30
2022-12-27T12:57:01.092Z,1.60
2022-12-27T12:59:49.646Z,3.03
2022-12-27T13:02:29.067Z,12.10
2022-12-27T13:05:11.789Z,3.83
2022-12-27T13:08:01.137Z,3.67
2022-12-27T13:11:02.579Z,1.90
2022-12-27T13:14:04.667Z,2.60
2022-12-27T13:16:34.761Z,5.60
2022-12-27T13:19:13.443Z,7.97
2022-12-27T13:22:05.264Z,7.75
2022-12-27T13:24:59.045Z,5.40
2022-12-27T13:27:35.462Z,2.28
2022-12-27T13:30:23.585Z,1.52
2022-12-27T13:33:10.854Z,2.00
2022-12-27T13:35:54.367Z,1.95
2022-12-27T13:38:30.631Z,2.85
2022-12-27T13:41:39.970Z,1.95
2022-12-27T13:44:31.790Z,1.20
2022-12-27T13:47:12.676Z,3.25
2022-12-27T13:50:13.767Z,3.70
2022-12-27T13:52:53.276Z,2.42
2022-12-27T13:55:41.919Z,1.27
2022-12-27T13:58:33.646Z,2.08
2022-12-27T14:01:17.690Z,1.45
2022-12-27T14:03:57.249Z,1.10
2022-12-27T14:06:33.363Z,1.70
2022-12-27T14:09:00.358Z,2.20
2022-12-27T14:11:47.999Z,2.33
2022-12-27T14:14:18.254Z,1.40
2022-12-27T14:16:59.516Z,2.10
2022-12-27T14:19:44.704Z,1.98
2022-12-27T14:22:14.565Z,1.85
2022-12-27T14:25:20.154Z,1.65
2022-12-27T14:31:33.894Z,1.40
2022-12-27T14:34:19.635Z,1.90
2022-12-27T14:36:59.544Z,2.67
2022-12-27T14:40:04.185Z,5.38
2022-12-27T14:42:59.349Z,4.87
2022-12-27T14:46:14.643Z,3.75
2022-12-27T14:49:07.073Z,2.20
2022-12-27T14:52:07.251Z,1.90
2022-12-27T14:55:16.347Z,1.50
2022-12-27T14:57:55.627Z,1.60
2022-12-27T15:00:24.299Z,1.40
2022-12-27T15:03:18.504Z,1.20
2022-12-27T15:05:49.521Z,1.40
2022-12-27T15:08:56.146Z,1.20
2022-12-27T15:11:40.441Z,1.38
2022-12-27T15:14:28.820Z,1.85
2022-12-27T15:17:16.471Z,2.97
2022-12-27T15:20:02.406Z,4.07
2022-12-27T15:23:00.678Z,3.60
2022-12-27T15:25:55.345Z,2.55
2022-12-27T15:28:48.912Z,2.03
2022-12-27T15:31:45.484Z,4.47
2022-12-27T15:34:24.743Z,7.22
2022-12-27T15:36:52.158Z,6.28
2022-12-27T15:39:34.584Z,5.13
2022-12-27T15:42:11.684Z,3.60
2022-12-27T15:45:12.034Z,2.25
2022-12-27T15:47:58.167Z,2.10
2022-12-27T15:50:46.765Z,2.13
2022-12-27T15:53:19.713Z,3.17
2022-12-27T15:56:04.280Z,3.33
2022-12-27T15:58:31.833Z,22.52
2022-12-27T16:01:25.268Z,2.42
2022-12-27T16:03:53.973Z,1.80
2022-12-27T16:06:44.050Z,2.38
2022-12-27T16:09:35.613Z,2.70
2022-12-27T16:12:15.635Z,2.95
2022-12-27T16:14:44.027Z,5.45
2022-12-27T16:17:34.631Z,7.03
2022-12-27T16:20:32.584Z,7.63
2022-12-27T16:23:06.307Z,7.22
2022-12-27T16:25:38.871Z,6.68
2022-12-27T16:28:40.060Z,6.30
2022-12-27T16:31:11.992Z,4.70
2022-12-27T16:33:41.518Z,4.78
2022-12-27T16:36:23.158Z,4.32
2022-12-27T16:38:59.118Z,4.97
2022-12-27T16:41:32.088Z,6.50
2022-12-27T16:44:07.083Z,5.60
2022-12-27T16:46:59.392Z,4.70
2022-12-27T16:49:38.502Z,3.97
2022-12-27T16:52:17.678Z,3.95
2022-12-27T16:55:07.785Z,4.20
2022-12-27T16:57:46.522Z,4.35
2022-12-27T17:00:38.824Z,5.63
2022-12-27T17:03:21.545Z,7.82
2022-12-27T17:06:30.687Z,5.80
2022-12-27T17:08:40.400Z,3.42
2022-12-27T17:11:29.621Z,5.22
2022-12-27T17:14:09.325Z,5.78
2022-12-27T17:16:48.720Z,7.10
2022-12-27T17:19:34.293Z,7.43
2022-12-27T17:22:04.699Z,10.27
2022-12-27T17:24:32.360Z,23.50
2022-12-27T17:27:22.493Z,21.65
2022-12-27T17:29:58.345Z,19.55
2022-12-27T17:32:41.552Z,14.85
2022-12-27T17:35:33.046Z,13.02
2022-12-27T17:38:42.178Z,14.60
2022-12-27T17:41:51.511Z,19.98
2022-12-27T17:44:39.446Z,10.98
2022-12-27T17:47:33.678Z,7.13
2022-12-27T17:50:03.883Z,5.57
2022-12-27T17:52:49.769Z,6.65
2022-12-27T17:55:46.769Z,6.40
2022-12-27T17:58:16.540Z,6.00
2022-12-27T18:00:52.799Z,5.95
2022-12-27T18:03:20.459Z,5.47
2022-12-27T18:05:49.528Z,16.58
2022-12-27T18:08:30.447Z,8.90
2022-12-27T18:10:59.075Z,7.25
2022-12-27T18:13:28.426Z,5.30
2022-12-27T18:15:56.884Z,4.75
2022-12-27T18:18:28.623Z,4.30
2022-12-27T18:21:02.459Z,4.82
2022-12-27T18:23:30.528Z,5.93
2022-12-27T18:26:09.310Z,5.70
2022-12-27T18:28:41.064Z,4.82
2022-12-27T18:31:23.181Z,4.43
2022-12-27T18:33:52.200Z,4.82
2022-12-27T18:36:33.562Z,5.90
2022-12-27T18:39:06.161Z,6.50
2022-12-27T18:41:45.273Z,9.15
2022-12-27T18:44:21.565Z,9.05
2022-12-27T18:46:57.741Z,12.55
2022-12-27T18:49:36.715Z,11.57
2022-12-27T18:52:15.538Z,9.55
2022-12-27T18:54:43.336Z,8.43
2022-12-27T18:57:35.341Z,6.53
2022-12-27T19:00:15.419Z,5.30
2022-12-27T19:02:43.748Z,6.30
2022-12-27T19:05:27.493Z,7.13
2022-12-27T19:08:17.225Z,6.40
2022-12-27T19:10:50.672Z,5.85
2022-12-27T19:13:26.103Z,5.18
2022-12-27T19:15:57.827Z,4.80
2022-12-27T19:18:30.934Z,4.68
2022-12-27T19:21:02.292Z,4.35
2022-12-27T19:23:38.189Z,6.22
2022-12-27T19:26:31.330Z,5.63
2022-12-27T19:29:07.744Z,6.57
2022-12-27T19:31:38.671Z,10.57
2022-12-27T19:34:13.407Z,7.78
2022-12-27T19:36:44.273Z,8.82
2022-12-27T19:39:34.332Z,7.57
2022-12-27T19:42:07.747Z,6.50
2022-12-27T19:44:35.017Z,6.57
2022-12-27T19:47:02.465Z,7.13
2022-12-27T19:49:45.228Z,7.05
2022-12-27T19:52:22.465Z,6.30
2022-12-27T19:54:51.412Z,6.43
2022-12-27T19:57:18.617Z,6.25
2022-12-27T19:59:45.833Z,6.03
2022-12-27T20:02:13.440Z,6.15
2022-12-27T20:04:41.343Z,5.15
2022-12-27T20:07:18.229Z,6.22
2022-12-27T20:09:45.463Z,6.25
2022-12-27T20:12:13.004Z,5.40
2022-12-27T20:14:40.196Z,5.65
2022-12-27T20:17:07.487Z,7.43
2022-12-27T20:19:34.881Z,7.25
2022-12-27T20:22:02.346Z,7.18
2022-12-27T20:24:31.683Z,6.63
2022-12-27T20:26:59.374Z,7.30
2022-12-27T20:29:27.873Z,7.70
2022-12-27T20:31:57.084Z,9.45
2022-12-27T20:34:24.356Z,8.82
2022-12-27T20:36:55.214Z,11.73
2022-12-27T20:39:22.645Z,8.80
2022-12-27T20:41:49.940Z,10.52
2022-12-27T20:44:17.297Z,11.65
2022-12-27T20:46:44.618Z,10.60
2022-12-27T20:49:11.669Z,11.63
2022-12-27T20:51:39.093Z,14.73
2022-12-27T20:54:06.403Z,11.98
2022-12-27T20:56:35.343Z,8.35
2022-12-27T20:59:02.721Z,8.30
2022-12-27T21:01:30.692Z,8.90
2022-12-27T21:03:58.319Z,7.95
2022-12-27T21:06:28.272Z,7.43
2022-12-27T21:08:58.153Z,5.55
2022-12-27T21:11:31.554Z,5.43
2022-12-27T21:14:01.489Z,5.10
2022-12-27T21:16:31.052Z,5.55
2022-12-27T21:18:58.866Z,5.35
2022-12-27T21:21:28.907Z,8.45
2022-12-27T21:24:00.636Z,11.88
2022-12-27T21:26:30.552Z,15.40
2022-12-27T21:28:59.400Z,13.00
2022-12-27T21:31:27.236Z,12.20
2022-12-27T21:33:54.788Z,12.70
2022-12-27T21:36:27.451Z,12.43
2022-12-27T21:38:56.034Z,12.55
2022-12-27T21:41:29.972Z,11.45
2022-12-27T21:43:58.011Z,11.70
2022-12-27T21:46:29.038Z,10.75
2022-12-27T21:48:58.576Z,8.13
2022-12-27T21:51:26.835Z,9.25
2022-12-27T21:53:54.377Z,8.10
2022-12-27T21:56:22.569Z,7.63
2022-12-27T21:58:49.839Z,8.60
2022-12-27T22:01:18.383Z,12.43
2022-12-27T22:03:48.820Z,11.63
2022-12-27T22:06:22.707Z,10.38
2022-12-27T22:08:52.161Z,11.63
2022-12-27T22:11:22.029Z,11.00
2022-12-27T22:13:50.896Z,10.63
2022-12-27T22:16:24.264Z,10.45
2022-12-27T22:18:53.178Z,9.80
2022-12-27T22:21:27.677Z,10.15
2022-12-27T22:26:38.357Z,10.30
2022-12-27T22:29:06.893Z,11.27
2022-12-27T22:31:36.765Z,11.23
2022-12-27T22:34:05.501Z,10.60
2022-12-27T22:36:33.245Z,13.98
2022-12-27T22:39:01.758Z,11.25
2022-12-27T22:41:34.891Z,10.60
2022-12-27T22:44:04.513Z,8.23
2022-12-27T22:46:58.761Z,10.27
2022-12-27T22:49:20.091Z,9.32
2022-12-27T22:51:47.903Z,8.93
2022-12-27T22:54:15.246Z,10.57
2022-12-27T22:56:43.457Z,9.35
2022-12-27T22:59:15.214Z,9.50
2022-12-27T23:01:44.141Z,10.50
2022-12-27T23:04:14.034Z,9.93
2022-12-27T23:06:42.548Z,10.95
2022-12-27T23:09:10.287Z,10.43
2022-12-27T23:11:43.706Z,9.98
2022-12-27T23:14:14.493Z,11.30
2022-12-27T23:16:48.164Z,11.85
2022-12-27T23:19:19.171Z,12.57
2022-12-27T23:21:48.409Z,15.40
2022-12-27T23:24:16.353Z,14.30
2022-12-27T23:26:43.896Z,14.27
2022-12-27T23:29:12.887Z,14.27
2022-12-27T23:31:54.400Z,14.57
2022-12-27T23:34:28.833Z,14.15
2022-12-27T23:36:57.838Z,14.05
2022-12-27T23:39:25.047Z,12.55
2022-12-27T23:41:52.393Z,13.23
2022-12-27T23:44:34.337Z,13.23
2022-12-27T23:47:06.167Z,12.32
2022-12-27T23:49:33.731Z,11.32
2022-12-27T23:52:01.246Z,12.90
2022-12-27T23:54:28.416Z,13.95
2022-12-27T23:56:55.801Z,14.70
2022-12-27T23:59:23.054Z,12.93
